Terminal Aerodrome Forecast
Issued by NWS Bismarck, ND

Home | Current Version | Previous Version | Text Only | Print | Product List | Glossary On
Versions: 1 2 3 4 5 6 7 8 9 10 11 12 13 14 15 16 17 18 19 20 21
000
FTUS43 KBIS 281120
TAFISN
TAF
KISN 281120Z 2812/2912 31010KT P6SM FEW070 SCT120
     FM281600 31017G25KT P6SM FEW070 SCT130
     FM281900 33024G34KT P6SM FEW080 SCT120
     FM290200 34016G24KT P6SM FEW060 SCT120
     FM290700 33010KT P6SM FEW045 FEW080=

USA.gov is the U.S. government's official web portal to all federal, state and local government web resources and services.